createdAt,value
2019-03-28T00:01:04.488Z,9.40
2019-03-28T00:03:33.387Z,9.30
2019-03-28T00:06:50.443Z,9.30
2019-03-28T00:09:19.487Z,9.30
2019-03-28T00:11:49.619Z,9.10
2019-03-28T00:14:54.596Z,9.10
2019-03-28T00:17:23.526Z,9.20
2019-03-28T00:19:52.416Z,9.20
2019-03-28T00:22:42.332Z,9.10
2019-03-28T00:25:15.842Z,9.10
2019-03-28T00:28:39.439Z,9.10
2019-03-28T00:31:08.376Z,9.10
2019-03-28T00:34:16.449Z,9.00
2019-03-28T00:36:47.039Z,9.00
2019-03-28T00:39:15.864Z,8.90
2019-03-28T00:42:23.975Z,9.00
2019-03-28T00:44:52.853Z,8.90
2019-03-28T00:47:47.139Z,8.70
2019-03-28T00:50:17.289Z,8.80
2019-03-28T00:52:47.740Z,8.80
2019-03-28T00:55:19.343Z,8.80
2019-03-28T00:57:48.304Z,8.80
2019-03-28T01:00:17.801Z,8.80
2019-03-28T01:02:52.923Z,8.80
2019-03-28T01:05:24.549Z,8.80
2019-03-28T01:08:45.031Z,8.70
2019-03-28T01:11:13.962Z,8.60
2019-03-28T01:13:43.294Z,8.50
2019-03-28T01:16:37.961Z,8.50
2019-03-28T01:19:09.702Z,8.50
2019-03-28T01:21:39.312Z,8.50
2019-03-28T01:24:08.171Z,9.30
2019-03-28T01:26:37.117Z,8.40
2019-03-28T01:29:33.008Z,8.40
2019-03-28T01:32:04.924Z,8.40
2019-03-28T01:34:33.888Z,8.40
2019-03-28T01:37:48.946Z,8.30
2019-03-28T01:40:17.888Z,8.40
2019-03-28T01:42:47.365Z,8.30
2019-03-28T01:45:16.324Z,8.10
2019-03-28T01:47:45.330Z,8.20
2019-03-28T01:50:50.739Z,8.30
2019-03-28T01:53:19.841Z,8.30
2019-03-28T01:55:48.778Z,8.10
2019-03-28T01:59:11.755Z,8.10
2019-03-28T02:01:40.680Z,8.00
2019-03-28T02:04:09.590Z,7.90
2019-03-28T02:06:45.645Z,7.90
2019-03-28T02:09:16.871Z,8.00
2019-03-28T02:11:45.852Z,7.90
2019-03-28T02:14:21.892Z,7.80
2019-03-28T02:16:50.945Z,7.90
2019-03-28T02:19:58.864Z,7.90
2019-03-28T02:22:27.859Z,7.80
2019-03-28T02:24:56.796Z,7.80
2019-03-28T02:27:52.567Z,7.90
2019-03-28T02:30:24.944Z,7.90
2019-03-28T02:32:54.064Z,7.90
2019-03-28T02:35:29.252Z,7.90
2019-03-28T02:37:58.386Z,7.90
2019-03-28T02:41:09.658Z,9.60
2019-03-28T02:43:38.613Z,8.00
2019-03-28T02:46:07.496Z,7.90
2019-03-28T02:49:00.445Z,7.80
2019-03-28T02:51:29.717Z,7.90
2019-03-28T02:53:58.763Z,8.00
2019-03-28T02:56:34.787Z,8.00
2019-03-28T02:59:04.766Z,8.10
2019-03-28T03:01:34.141Z,8.10
2019-03-28T03:04:03.101Z,8.30
2019-03-28T03:06:36.092Z,8.00
2019-03-28T03:09:07.970Z,8.10
2019-03-28T03:12:12.779Z,8.10
2019-03-28T03:14:41.663Z,8.10
2019-03-28T03:17:46.862Z,8.10
2019-03-28T03:20:16.010Z,8.20
2019-03-28T03:23:24.125Z,8.20
2019-03-28T03:25:53.061Z,8.30
2019-03-28T03:28:22.130Z,8.20
2019-03-28T03:30:51.064Z,8.30
2019-03-28T03:33:19.932Z,8.40
2019-03-28T03:35:48.863Z,8.30
2019-03-28T03:39:06.523Z,8.30
2019-03-28T03:41:35.576Z,8.40
2019-03-28T03:44:04.660Z,8.40
2019-03-28T03:47:27.637Z,8.40
2019-03-28T03:49:56.739Z,8.40
2019-03-28T03:52:26.842Z,8.40
2019-03-28T03:55:02.978Z,7.30
2019-03-28T03:57:34.677Z,8.30
2019-03-28T04:00:05.090Z,8.40
2019-03-28T04:02:40.149Z,8.50
2019-03-28T04:05:10.759Z,8.50
2019-03-28T04:07:46.886Z,8.40
2019-03-28T04:10:15.990Z,8.40
2019-03-28T04:13:21.047Z,8.30
2019-03-28T04:15:50.051Z,8.30
2019-03-28T04:18:22.152Z,8.30
2019-03-28T04:21:19.900Z,8.40
2019-03-28T04:23:48.777Z,8.40
2019-03-28T04:26:20.761Z,8.40
2019-03-28T04:28:56.957Z,8.30
2019-03-28T04:31:26.010Z,8.40
2019-03-28T04:34:13.159Z,8.40
2019-03-28T04:36:42.386Z,8.40
2019-03-28T04:39:11.223Z,8.40
2019-03-28T04:41:40.262Z,8.30
2019-03-28T04:44:09.236Z,8.30
2019-03-28T04:47:11.357Z,8.20
2019-03-28T04:49:40.251Z,8.20
2019-03-28T04:52:45.590Z,8.10
2019-03-28T04:55:15.034Z,8.10
2019-03-28T04:58:21.669Z,9.00
2019-03-28T05:00:50.646Z,8.20
2019-03-28T05:04:10.682Z,8.10
2019-03-28T05:06:39.733Z,8.10
2019-03-28T05:09:08.706Z,8.10
2019-03-28T05:11:37.684Z,8.10
2019-03-28T05:14:06.567Z,8.10
2019-03-28T05:16:35.516Z,8.20
2019-03-28T05:23:40.455Z,8.10
2019-03-28T05:26:12.396Z,8.10
2019-03-28T05:29:17.126Z,8.20
2019-03-28T05:31:50.465Z,8.20
2019-03-28T05:35:07.810Z,8.20
2019-03-28T05:37:36.790Z,8.20
2019-03-28T05:40:32.416Z,8.20
2019-03-28T05:43:04.467Z,8.20
2019-03-28T05:46:31.875Z,8.30
2019-03-28T05:49:05.090Z,8.30
2019-03-28T05:51:58.905Z,8.20
2019-03-28T05:54:28.121Z,8.30
2019-03-28T05:57:21.215Z,8.30
2019-03-28T05:59:50.162Z,8.50
2019-03-28T06:02:43.293Z,8.50
2019-03-28T06:05:15.437Z,8.60
2019-03-28T06:08:41.031Z,8.70
2019-03-28T06:11:10.042Z,9.10
2019-03-28T06:14:12.302Z,9.50
2019-03-28T06:16:47.621Z,8.70
2019-03-28T06:20:09.473Z,8.70
2019-03-28T06:22:39.541Z,8.50
2019-03-28T06:25:56.818Z,7.30
2019-03-28T06:28:25.777Z,8.90
2019-03-28T06:31:10.627Z,9.30
2019-03-28T06:33:39.991Z,9.50
2019-03-28T06:37:02.926Z,9.40
2019-03-28T06:39:36.590Z,9.50
2019-03-28T06:42:18.148Z,9.60
2019-03-28T06:44:47.575Z,9.70
2019-03-28T06:48:01.660Z,9.80
2019-03-28T06:50:30.601Z,9.90
2019-03-28T06:53:35.567Z,10.60
2019-03-28T06:56:04.610Z,10.00
2019-03-28T06:59:10.429Z,10.30
2019-03-28T07:01:39.566Z,10.30
2019-03-28T07:04:08.910Z,10.40
2019-03-28T07:06:42.319Z,10.50
2019-03-28T07:09:14.628Z,10.50
2019-03-28T07:11:44.277Z,10.50
2019-03-28T07:14:13.316Z,10.50
2019-03-28T07:16:42.547Z,10.50
2019-03-28T07:19:11.898Z,10.50
2019-03-28T07:21:45.761Z,10.60
2019-03-28T07:24:14.999Z,10.70
2019-03-28T07:26:46.769Z,9.90
2019-03-28T07:29:16.565Z,10.90
2019-03-28T07:31:50.183Z,10.90
2019-03-28T07:34:19.344Z,10.90
2019-03-28T07:36:52.141Z,10.90
2019-03-28T07:39:30.637Z,11.10
2019-03-28T07:42:09.108Z,11.00
2019-03-28T07:45:04.190Z,11.40
2019-03-28T07:47:26.768Z,11.50
2019-03-28T07:49:57.484Z,11.80
2019-03-28T07:52:28.821Z,11.90
2019-03-28T07:55:01.288Z,12.00
2019-03-28T07:57:32.611Z,12.20
2019-03-28T08:02:51.194Z,12.30
2019-03-28T08:05:29.206Z,12.30
2019-03-28T08:08:09.967Z,12.40
2019-03-28T08:10:56.643Z,12.40
2019-03-28T08:13:30.885Z,12.20
2019-03-28T08:16:13.784Z,12.40
2019-03-28T08:18:46.839Z,12.50
2019-03-28T08:21:25.835Z,12.60
2019-03-28T08:23:55.264Z,12.70
2019-03-28T08:26:30.285Z,12.90
2019-03-28T08:29:04.413Z,13.00
2019-03-28T08:31:42.386Z,13.10
2019-03-28T08:34:31.408Z,13.20
2019-03-28T08:37:12.977Z,12.90
2019-03-28T08:39:39.153Z,12.70
2019-03-28T08:45:08.902Z,12.00
2019-03-28T08:47:42.736Z,11.70
2019-03-28T08:50:12.485Z,11.60
2019-03-28T08:52:43.719Z,11.40
2019-03-28T08:55:18.740Z,10.80
2019-03-28T08:57:51.502Z,10.80
2019-03-28T09:00:33.037Z,11.00
2019-03-28T09:02:58.183Z,12.20
2019-03-28T09:05:28.593Z,12.50
2019-03-28T09:08:01.099Z,12.50
2019-03-28T09:10:34.849Z,12.60
2019-03-28T09:13:09.887Z,12.90
2019-03-28T09:15:45.543Z,13.00
2019-03-28T09:18:23.602Z,13.30
2019-03-28T09:20:53.894Z,13.30
2019-03-28T09:23:23.059Z,13.30
2019-03-28T09:25:52.198Z,13.40
2019-03-28T09:28:25.222Z,13.60
2019-03-28T09:30:55.984Z,13.60
2019-03-28T09:33:27.908Z,13.80
2019-03-28T09:35:57.362Z,13.70
2019-03-28T09:38:26.314Z,13.60
2019-03-28T09:40:56.820Z,13.40
2019-03-28T09:43:27.839Z,13.60
2019-03-28T09:46:00.548Z,13.40
2019-03-28T09:48:32.152Z,13.40
2019-03-28T09:51:01.897Z,14.20
2019-03-28T09:53:32.223Z,13.30
2019-03-28T09:56:01.258Z,12.70
2019-03-28T09:58:34.031Z,14.60
2019-03-28T10:01:03.686Z,12.40
2019-03-28T10:03:33.869Z,12.20
2019-03-28T10:06:03.669Z,12.30
2019-03-28T10:08:38.736Z,12.00
2019-03-28T10:11:10.553Z,11.80
2019-03-28T10:13:43.656Z,11.70
2019-03-28T10:16:15.626Z,11.70
2019-03-28T10:18:48.060Z,11.90
2019-03-28T10:21:20.866Z,12.30
2019-03-28T10:23:51.006Z,11.90
2019-03-28T10:26:30.714Z,11.70
2019-03-28T10:29:00.038Z,11.60
2019-03-28T10:31:31.063Z,11.70
2019-03-28T10:34:00.746Z,11.60
2019-03-28T10:36:31.766Z,11.70
2019-03-28T10:39:05.692Z,11.80
2019-03-28T10:41:39.866Z,12.00
2019-03-28T10:44:10.619Z,12.20
2019-03-28T10:46:39.783Z,12.20
2019-03-28T10:49:08.833Z,12.20
2019-03-28T10:51:39.361Z,12.00
2019-03-28T10:54:19.444Z,11.80
2019-03-28T10:56:51.122Z,12.10
2019-03-28T10:59:22.764Z,12.00
2019-03-28T11:01:50.504Z,14.40
2019-03-28T11:04:18.951Z,12.30
2019-03-28T11:06:51.008Z,12.40
2019-03-28T11:09:20.877Z,12.30
2019-03-28T11:11:53.066Z,12.10
2019-03-28T11:14:29.665Z,11.90
2019-03-28T11:17:00.347Z,12.10
2019-03-28T11:19:29.727Z,12.60
2019-03-28T11:22:01.353Z,12.90
2019-03-28T11:24:31.572Z,12.90
2019-03-28T11:27:04.966Z,13.00
2019-03-28T11:29:34.896Z,12.90
2019-03-28T11:32:07.532Z,12.60
2019-03-28T11:34:36.734Z,12.50
2019-03-28T11:37:14.951Z,12.40
2019-03-28T11:39:41.742Z,12.90
2019-03-28T11:42:11.923Z,13.30
2019-03-28T11:44:46.470Z,13.20
2019-03-28T11:47:23.893Z,13.10
2019-03-28T11:49:54.231Z,13.00
2019-03-28T11:52:24.714Z,13.00
2019-03-28T11:54:58.088Z,13.10
2019-03-28T11:57:30.710Z,12.90
2019-03-28T12:00:00.792Z,12.70
2019-03-28T12:06:13.409Z,13.20
2019-03-28T12:08:44.938Z,13.20
2019-03-28T12:11:14.562Z,12.90
2019-03-28T12:13:45.237Z,13.10
2019-03-28T12:16:17.334Z,13.60
2019-03-28T12:19:27.025Z,13.60
2019-03-28T12:21:58.314Z,13.60
2019-03-28T12:25:35.094Z,13.40
2019-03-28T12:27:07.169Z,13.20
2019-03-28T12:29:36.882Z,13.20
2019-03-28T12:32:13.951Z,13.00
2019-03-28T12:34:40.664Z,13.10
2019-03-28T12:37:42.692Z,13.10
2019-03-28T12:40:13.539Z,13.00
2019-03-28T12:43:11.702Z,13.20
2019-03-28T12:45:46.358Z,13.00
2019-03-28T12:48:44.957Z,12.10
2019-03-28T12:51:14.382Z,13.20
2019-03-28T12:53:50.442Z,13.10
2019-03-28T12:56:21.460Z,13.00
2019-03-28T12:58:56.258Z,12.80
2019-03-28T13:01:30.228Z,13.50
2019-03-28T13:03:59.078Z,13.40
2019-03-28T13:07:19.950Z,13.50
2019-03-28T13:09:59.171Z,13.80
2019-03-28T13:12:37.806Z,11.50
2019-03-28T13:15:08.497Z,13.20
2019-03-28T13:18:19.728Z,13.40
2019-03-28T13:20:50.569Z,13.50
2019-03-28T13:23:48.464Z,11.60
2019-03-28T13:26:23.204Z,12.40
2019-03-28T13:29:34.607Z,13.30
2019-03-28T13:32:10.752Z,13.40
2019-03-28T13:34:59.609Z,13.80
2019-03-28T13:37:28.538Z,14.00
2019-03-28T13:40:01.855Z,13.80
2019-03-28T13:42:31.240Z,13.50
2019-03-28T13:45:00.992Z,13.70
2019-03-28T13:48:17.996Z,13.90
2019-03-28T13:50:47.178Z,14.30
2019-03-28T13:53:52.087Z,13.60
2019-03-28T13:56:20.991Z,12.80
2019-03-28T13:59:46.257Z,13.40
2019-03-28T14:02:15.213Z,13.30
2019-03-28T14:05:17.519Z,13.40
2019-03-28T14:07:50.213Z,13.60
2019-03-28T14:11:09.641Z,13.60
2019-03-28T14:13:43.919Z,13.60
2019-03-28T14:17:19.695Z,15.90
2019-03-28T14:19:44.645Z,13.80
2019-03-28T14:22:19.271Z,13.90
2019-03-28T14:24:55.886Z,13.80
2019-03-28T14:27:54.863Z,14.20
2019-03-28T14:30:23.838Z,14.50
2019-03-28T14:32:53.939Z,14.30
2019-03-28T14:35:23.170Z,14.70
2019-03-28T14:37:52.386Z,12.70
2019-03-28T14:40:58.126Z,14.10
2019-03-28T14:43:29.207Z,14.20
2019-03-28T14:46:31.286Z,14.20
2019-03-28T14:49:00.329Z,14.30
2019-03-28T14:51:55.003Z,14.30
2019-03-28T14:54:24.265Z,14.30
2019-03-28T14:57:19.382Z,14.30
2019-03-28T14:59:51.550Z,13.90
2019-03-28T15:02:56.784Z,13.60
2019-03-28T15:05:32.855Z,13.50
2019-03-28T15:08:49.073Z,13.50
2019-03-28T15:11:19.305Z,14.90
2019-03-28T15:14:27.083Z,14.00
2019-03-28T15:17:02.212Z,13.90
2019-03-28T15:20:13.705Z,13.90
2019-03-28T15:22:42.930Z,13.70
2019-03-28T15:25:51.694Z,13.60
2019-03-28T15:28:24.895Z,13.50
2019-03-28T15:31:48.098Z,13.60
2019-03-28T15:34:18.617Z,14.00
2019-03-28T15:37:02.003Z,13.80
2019-03-28T15:39:33.471Z,13.70
2019-03-28T15:42:51.286Z,13.70
2019-03-28T15:45:20.370Z,13.90
2019-03-28T15:47:52.017Z,14.20
2019-03-28T15:50:25.161Z,14.10
2019-03-28T15:54:39.070Z,14.10
2019-03-28T15:55:34.872Z,14.00
2019-03-28T15:58:05.302Z,14.30
2019-03-28T16:01:22.809Z,13.80
2019-03-28T16:04:10.391Z,13.90
2019-03-28T16:07:13.398Z,14.30
2019-03-28T16:09:46.650Z,14.60
2019-03-28T16:12:51.552Z,14.60
2019-03-28T16:15:30.315Z,14.80
2019-03-28T16:18:33.756Z,14.30
2019-03-28T16:21:16.536Z,13.80
2019-03-28T16:23:49.084Z,13.60
2019-03-28T16:26:19.836Z,13.90
2019-03-28T16:28:58.858Z,14.10
2019-03-28T16:32:05.384Z,14.30
2019-03-28T16:34:36.086Z,14.10
2019-03-28T16:37:42.619Z,11.60
2019-03-28T16:40:14.763Z,13.80
2019-03-28T16:43:35.581Z,13.90
2019-03-28T16:46:07.731Z,13.90
2019-03-28T16:49:13.178Z,13.10
2019-03-28T16:51:45.761Z,13.90
2019-03-28T16:54:50.955Z,13.90
2019-03-28T16:57:22.927Z,13.90
2019-03-28T17:00:34.836Z,14.10
2019-03-28T17:03:03.944Z,13.90
2019-03-28T17:06:24.646Z,13.50
2019-03-28T17:08:58.475Z,13.60
2019-03-28T17:12:05.206Z,13.50
2019-03-28T17:14:34.565Z,12.90
2019-03-28T17:17:40.835Z,13.10
2019-03-28T17:20:12.535Z,13.00
2019-03-28T17:23:30.382Z,13.10
2019-03-28T17:26:03.824Z,13.30
2019-03-28T17:29:09.071Z,13.70
2019-03-28T17:31:38.059Z,13.90
2019-03-28T17:34:38.406Z,14.10
2019-03-28T17:37:07.305Z,14.20
2019-03-28T17:39:41.735Z,14.30
2019-03-28T17:42:14.149Z,14.20
2019-03-28T17:45:37.330Z,14.00
2019-03-28T17:48:12.659Z,13.90
2019-03-28T17:51:24.557Z,13.90
2019-03-28T17:53:56.089Z,13.90
2019-03-28T17:57:06.640Z,13.80
2019-03-28T17:59:39.824Z,13.60
2019-03-28T18:02:32.788Z,13.20
2019-03-28T18:05:09.555Z,13.10
2019-03-28T18:08:10.138Z,12.80
2019-03-28T18:10:50.541Z,13.00
2019-03-28T18:13:41.444Z,13.00
2019-03-28T18:16:13.110Z,13.00
2019-03-28T18:19:18.354Z,12.80
2019-03-28T18:22:03.772Z,12.90
2019-03-28T18:24:57.777Z,13.00
2019-03-28T18:27:26.847Z,13.20
2019-03-28T18:30:24.162Z,13.20
2019-03-28T18:32:53.774Z,13.00
2019-03-28T18:35:57.495Z,12.60
2019-03-28T18:38:30.799Z,12.30
2019-03-28T18:41:48.257Z,12.40
2019-03-28T18:44:17.290Z,12.50
2019-03-28T18:47:20.450Z,12.60
2019-03-28T18:49:49.271Z,12.70
2019-03-28T18:53:09.366Z,12.70
2019-03-28T18:55:42.427Z,12.90
2019-03-28T18:59:02.033Z,13.00
2019-03-28T19:01:31.014Z,11.70
2019-03-28T19:15:36.924Z,13.10
2019-03-28T19:18:06.551Z,13.10
2019-03-28T19:20:37.837Z,12.80
2019-03-28T19:23:07.706Z,12.80
2019-03-28T19:25:37.026Z,12.90
2019-03-28T19:28:07.734Z,12.80
2019-03-28T19:30:49.526Z,12.90
2019-03-28T19:33:21.662Z,12.90
2019-03-28T19:36:29.566Z,12.80
2019-03-28T19:38:58.115Z,12.80
2019-03-28T19:41:59.234Z,12.60
2019-03-28T19:44:30.089Z,12.50
2019-03-28T19:47:48.927Z,12.10
2019-03-28T19:50:20.808Z,12.20
2019-03-28T19:52:49.732Z,12.30
2019-03-28T19:55:23.652Z,12.30
2019-03-28T19:57:52.641Z,12.20
2019-03-28T20:01:13.109Z,12.10
2019-03-28T20:03:41.992Z,13.20
2019-03-28T20:07:06.048Z,12.00
2019-03-28T20:09:35.073Z,11.90
2019-03-28T20:12:37.044Z,11.90
2019-03-28T20:15:10.527Z,11.80
2019-03-28T20:17:39.554Z,11.80
2019-03-28T20:20:08.882Z,11.60
2019-03-28T20:22:38.798Z,11.50
2019-03-28T20:25:17.229Z,11.50
2019-03-28T20:27:49.733Z,11.40
2019-03-28T20:30:19.710Z,11.40
2019-03-28T20:32:50.157Z,11.60
2019-03-28T20:35:25.790Z,11.50
2019-03-28T20:38:42.661Z,11.40
2019-03-28T20:41:18.470Z,10.60
2019-03-28T20:44:22.522Z,11.20
2019-03-28T20:46:53.457Z,11.10
2019-03-28T20:50:15.008Z,11.10
2019-03-28T20:52:53.003Z,11.10
2019-03-28T20:56:01.398Z,11.20
2019-03-28T20:58:36.403Z,11.20
2019-03-28T21:01:07.114Z,11.20
2019-03-28T21:03:36.333Z,11.20
2019-03-28T21:06:27.743Z,11.10
2019-03-28T21:08:56.792Z,11.00
2019-03-28T21:11:59.904Z,10.90
2019-03-28T21:14:30.952Z,10.80
2019-03-28T21:17:00.117Z,10.60
2019-03-28T21:23:52.350Z,10.70
2019-03-28T21:26:24.259Z,10.40
2019-03-28T21:28:53.201Z,10.40
2019-03-28T21:32:20.945Z,10.30
2019-03-28T21:34:56.255Z,10.40
2019-03-28T21:38:04.239Z,10.50
2019-03-28T21:40:34.687Z,10.50
2019-03-28T21:43:57.499Z,10.30
2019-03-28T21:46:26.400Z,7.80
2019-03-28T21:49:43.269Z,10.30
2019-03-28T21:52:12.502Z,10.40
2019-03-28T21:55:02.716Z,10.20
2019-03-28T21:57:38.190Z,10.10
2019-03-28T22:00:50.388Z,10.10
2019-03-28T22:03:19.362Z,10.00
2019-03-28T22:08:19.106Z,9.90
2019-03-28T22:10:47.998Z,10.00
2019-03-28T22:13:52.822Z,11.20
2019-03-28T22:16:21.731Z,9.60
2019-03-28T22:18:50.659Z,9.60
2019-03-28T22:22:11.648Z,9.70
2019-03-28T22:24:40.574Z,9.80
2019-03-28T22:27:11.320Z,9.80
2019-03-28T22:29:40.247Z,9.70
2019-03-28T22:32:16.199Z,9.60
2019-03-28T22:34:52.878Z,9.70
2019-03-28T22:37:21.872Z,9.80
2019-03-28T22:40:30.307Z,9.60
2019-03-28T22:43:00.272Z,9.70
2019-03-28T22:45:29.351Z,9.70
2019-03-28T22:48:36.064Z,9.50
2019-03-28T22:51:05.022Z,9.60
2019-03-28T22:54:13.086Z,9.60
2019-03-28T22:56:41.953Z,7.20
2019-03-28T22:59:10.978Z,9.60
2019-03-28T23:01:40.162Z,9.50
2019-03-28T23:04:10.095Z,9.50
2019-03-28T23:07:17.812Z,9.50
2019-03-28T23:09:46.963Z,9.40
2019-03-28T23:12:20.159Z,6.80
2019-03-28T23:15:29.085Z,8.90
2019-03-28T23:18:03.802Z,8.80
2019-03-28T23:20:37.250Z,8.90
2019-03-28T23:23:13.247Z,8.90
2019-03-28T23:25:42.162Z,9.10
2019-03-28T23:28:48.363Z,9.10
2019-03-28T23:31:17.268Z,9.10
2019-03-28T23:33:46.242Z,9.10
2019-03-28T23:37:06.590Z,9.10
2019-03-28T23:39:35.590Z,9.10
2019-03-28T23:42:31.427Z,8.80
2019-03-28T23:45:00.441Z,8.80
2019-03-28T23:47:32.331Z,8.80
2019-03-28T23:50:01.252Z,8.70
2019-03-28T23:52:30.156Z,8.70
2019-03-28T23:55:47.625Z,8.50
2019-03-28T23:58:18.503Z,8.40
